createdAt,value
2023-04-14T00:00:15.867Z,12.38
2023-04-14T00:02:43.612Z,11.65
2023-04-14T00:05:11.122Z,10.07
2023-04-14T00:07:41.392Z,9.95
2023-04-14T00:10:09.006Z,13.30
2023-04-14T00:12:43.844Z,10.85
2023-04-14T00:15:11.631Z,13.63
2023-04-14T00:17:39.661Z,11.93
2023-04-14T00:20:09.747Z,11.65
2023-04-14T00:22:36.932Z,13.02
2023-04-14T00:25:13.441Z,11.40
2023-04-14T00:27:49.721Z,10.70
2023-04-14T00:30:19.980Z,11.45
2023-04-14T00:32:58.571Z,11.25
2023-04-14T00:35:29.790Z,11.30
2023-04-14T00:38:01.101Z,10.73
2023-04-14T00:40:36.012Z,12.85
2023-04-14T00:43:02.935Z,14.68
2023-04-14T00:45:30.343Z,12.73
2023-04-14T00:48:01.062Z,11.95
2023-04-14T00:50:31.118Z,13.88
2023-04-14T00:53:07.121Z,15.77
2023-04-14T00:55:40.602Z,15.95
2023-04-14T00:58:14.505Z,14.27
2023-04-14T01:00:43.056Z,14.63
2023-04-14T01:03:18.041Z,15.63
2023-04-14T01:05:47.674Z,15.15
2023-04-14T01:08:15.415Z,13.60
2023-04-14T01:10:50.995Z,13.73
2023-04-14T01:13:38.880Z,14.32
2023-04-14T01:16:41.640Z,14.45
2023-04-14T01:19:44.261Z,13.65
2023-04-14T01:22:18.464Z,13.25
2023-04-14T01:25:23.125Z,15.27
2023-04-14T01:28:22.772Z,14.15
2023-04-14T01:31:06.600Z,13.95
2023-04-14T01:36:44.617Z,14.13
2023-04-14T01:39:45.057Z,14.48
2023-04-14T01:42:18.470Z,13.93
2023-04-14T01:44:59.115Z,15.60
2023-04-14T01:47:30.071Z,13.73
2023-04-14T01:50:06.809Z,12.77
2023-04-14T01:52:38.779Z,12.18
2023-04-14T01:55:09.929Z,15.73
2023-04-14T01:57:45.861Z,13.32
2023-04-14T02:03:05.911Z,14.90
2023-04-14T02:06:02.628Z,15.15
2023-04-14T02:08:40.386Z,16.75
2023-04-14T02:11:11.688Z,17.42
2023-04-14T02:13:44.727Z,14.95
2023-04-14T02:16:22.133Z,17.58
2023-04-14T02:18:50.530Z,16.23
2023-04-14T02:21:20.941Z,16.35
2023-04-14T02:29:22.135Z,17.75
2023-04-14T02:32:27.175Z,13.98
2023-04-14T02:35:14.332Z,15.43
2023-04-14T02:37:50.728Z,14.15
2023-04-14T02:43:37.003Z,14.25
2023-04-14T02:51:40.445Z,20.23
2023-04-14T02:54:10.974Z,14.70
2023-04-14T02:56:44.045Z,16.50
2023-04-14T02:59:14.850Z,16.73
2023-04-14T03:01:45.120Z,16.98
2023-04-14T03:04:16.376Z,15.65
2023-04-14T03:06:51.272Z,14.23
2023-04-14T03:09:20.886Z,17.60
2023-04-14T03:11:51.869Z,17.85
2023-04-14T03:17:11.083Z,15.05
2023-04-14T03:19:43.370Z,18.67
2023-04-14T03:22:15.766Z,18.85
2023-04-14T03:24:48.773Z,17.58
2023-04-14T03:27:33.540Z,17.25
2023-04-14T03:30:28.823Z,17.05
2023-04-14T03:32:59.199Z,15.30
2023-04-14T03:35:33.506Z,16.30
2023-04-14T03:38:04.025Z,14.38
2023-04-14T03:40:37.060Z,15.70
2023-04-14T03:43:06.567Z,18.42
2023-04-14T03:45:38.114Z,16.25
2023-04-14T03:48:08.152Z,15.35
2023-04-14T03:56:13.944Z,18.85
2023-04-14T03:58:47.665Z,14.60
2023-04-14T04:01:19.614Z,15.80
2023-04-14T04:03:48.704Z,16.75
2023-04-14T04:06:24.706Z,16.65
2023-04-14T04:08:56.601Z,15.10
2023-04-14T04:11:41.485Z,16.80
2023-04-14T04:17:10.858Z,15.30
2023-04-14T04:19:47.973Z,16.40
2023-04-14T04:22:27.648Z,14.23
2023-04-14T04:24:57.533Z,17.42
2023-04-14T04:27:28.500Z,17.77
2023-04-14T04:30:13.384Z,23.65
2023-04-14T04:32:46.202Z,23.92
2023-04-14T04:35:24.731Z,18.23
2023-04-14T04:40:53.451Z,24.23
2023-04-14T04:46:43.192Z,33.25
2023-04-14T05:03:34.296Z,54.72
2023-04-14T05:06:02.771Z,62.80
2023-04-14T05:08:31.389Z,49.40
2023-04-14T05:13:48.265Z,52.55
2023-04-14T05:16:27.694Z,45.45
2023-04-14T05:18:58.976Z,42.00
2023-04-14T05:30:47.069Z,45.15
2023-04-14T05:38:45.711Z,40.75
2023-04-14T05:52:46.301Z,52.88
2023-04-14T05:55:46.717Z,40.42
2023-04-14T05:58:25.895Z,38.40
2023-04-14T06:01:00.426Z,38.90
2023-04-14T06:03:54.930Z,43.25
2023-04-14T06:09:13.390Z,41.40
2023-04-14T06:14:57.641Z,40.83
2023-04-14T06:17:31.283Z,38.13
2023-04-14T06:20:06.071Z,39.60
2023-04-14T06:25:34.587Z,45.80
2023-04-14T06:28:05.128Z,53.50
2023-04-14T06:30:35.198Z,46.38
2023-04-14T06:38:41.717Z,53.72
2023-04-14T06:44:38.785Z,44.35
2023-04-14T06:47:07.829Z,46.80
2023-04-14T06:49:49.243Z,47.90
2023-04-14T06:55:12.502Z,46.58
2023-04-14T06:57:44.408Z,39.08
2023-04-14T07:05:44.763Z,44.20
2023-04-14T07:08:13.381Z,40.30
2023-04-14T07:10:41.827Z,37.80
2023-04-14T07:13:12.841Z,37.67
2023-04-14T07:18:26.158Z,36.17
2023-04-14T07:20:55.537Z,36.28
2023-04-14T07:28:51.527Z,37.08
2023-04-14T07:31:26.587Z,37.78
2023-04-14T07:36:43.224Z,42.95
2023-04-14T07:44:40.656Z,35.58
2023-04-14T07:49:56.682Z,40.55
2023-04-14T07:52:30.236Z,37.13
2023-04-14T07:57:54.053Z,33.92
2023-04-14T08:08:42.823Z,43.20
2023-04-14T08:11:23.309Z,40.83
2023-04-14T08:19:30.456Z,46.45
2023-04-14T08:22:03.143Z,48.70
2023-04-14T08:24:42.958Z,45.80
2023-04-14T08:32:52.726Z,34.53
2023-04-14T08:35:36.880Z,40.90
2023-04-14T08:38:11.292Z,41.63
2023-04-14T08:40:48.543Z,38.35
2023-04-14T08:43:18.613Z,41.42
2023-04-14T08:45:52.996Z,34.50
2023-04-14T08:48:33.643Z,43.70
2023-04-14T08:56:55.337Z,35.72
2023-04-14T08:59:22.958Z,38.47
2023-04-14T09:01:54.816Z,40.55
2023-04-14T09:04:24.650Z,43.85
2023-04-14T09:07:00.103Z,48.27
2023-04-14T09:09:35.440Z,53.60
2023-04-14T09:15:18.069Z,41.35
2023-04-14T09:21:49.888Z,43.22
2023-04-14T09:23:48.813Z,43.60
2023-04-14T09:26:21.799Z,42.42
2023-04-14T09:31:37.938Z,38.67
2023-04-14T09:34:28.633Z,37.85
2023-04-14T09:37:16.883Z,40.72
2023-04-14T09:39:53.675Z,37.10
2023-04-14T09:42:47.542Z,34.53
2023-04-14T09:45:21.465Z,35.80
2023-04-14T09:54:46.192Z,34.72
2023-04-14T10:11:39.124Z,34.50
2023-04-14T10:16:53.720Z,31.70
2023-04-14T10:19:22.350Z,35.28
2023-04-14T10:22:05.849Z,31.73
2023-04-14T10:24:33.579Z,28.67
2023-04-14T10:38:07.666Z,28.50
2023-04-14T10:41:00.538Z,28.30
2023-04-14T10:46:54.608Z,22.83
2023-04-14T10:49:40.146Z,19.20
2023-04-14T10:55:51.286Z,18.35
2023-04-14T10:58:33.139Z,15.05
2023-04-14T11:01:15.915Z,15.45
2023-04-14T11:03:51.102Z,16.15
2023-04-14T11:06:55.895Z,16.48
2023-04-14T11:09:52.019Z,14.65
2023-04-14T11:12:28.662Z,13.27
2023-04-14T11:15:10.887Z,12.43
2023-04-14T11:17:46.745Z,14.18
2023-04-14T11:20:33.949Z,11.32
2023-04-14T11:23:06.813Z,10.73
2023-04-14T11:25:39.228Z,11.75
2023-04-14T11:28:12.878Z,10.10
2023-04-14T11:30:45.981Z,9.02
2023-04-14T11:38:43.142Z,13.80
2023-04-14T11:41:32.618Z,10.48
2023-04-14T11:44:05.432Z,11.45
2023-04-14T11:46:50.831Z,12.48
2023-04-14T11:49:22.211Z,11.05
2023-04-14T11:51:54.249Z,6.57
2023-04-14T11:54:24.788Z,8.52
2023-04-14T11:59:22.770Z,8.48
2023-04-14T12:01:53.625Z,8.35
2023-04-14T12:04:23.108Z,10.25
2023-04-14T12:07:05.249Z,5.80
2023-04-14T12:09:35.777Z,6.82
2023-04-14T12:12:14.121Z,9.88
2023-04-14T12:14:52.230Z,6.75
2023-04-14T12:17:39.997Z,8.20
2023-04-14T12:28:32.859Z,8.85
2023-04-14T12:31:08.288Z,8.13
2023-04-14T12:33:35.453Z,7.43
2023-04-14T12:41:47.818Z,8.18
2023-04-14T12:44:30.754Z,10.10
2023-04-14T12:47:06.193Z,9.63
2023-04-14T12:58:27.306Z,6.40
2023-04-14T13:00:59.493Z,7.05
2023-04-14T13:03:52.755Z,7.75
2023-04-14T13:06:22.990Z,7.85
2023-04-14T13:09:00.177Z,7.53
2023-04-14T13:14:27.148Z,6.15
2023-04-14T13:17:05.675Z,5.68
2023-04-14T13:19:37.808Z,6.78
2023-04-14T13:22:08.073Z,3.90
2023-04-14T13:24:47.181Z,6.57
2023-04-14T13:27:21.914Z,6.25
2023-04-14T13:30:00.886Z,6.05
2023-04-14T13:32:31.556Z,5.28
2023-04-14T13:35:12.304Z,7.68
2023-04-14T13:37:44.182Z,4.60
2023-04-14T13:40:11.684Z,6.60
2023-04-14T13:45:24.770Z,5.18
2023-04-14T13:50:41.448Z,5.45
2023-04-14T13:53:16.025Z,8.70
2023-04-14T13:55:47.198Z,7.25
2023-04-14T13:58:14.258Z,5.20
2023-04-14T14:00:47.148Z,4.63
2023-04-14T14:03:20.870Z,5.20
2023-04-14T14:11:27.183Z,7.40
2023-04-14T14:13:59.902Z,3.65
2023-04-14T14:16:36.569Z,7.40
2023-04-14T14:19:08.797Z,6.88
2023-04-14T14:21:41.111Z,8.43
2023-04-14T14:24:15.353Z,6.00
2023-04-14T14:26:50.399Z,5.15
2023-04-14T14:29:22.792Z,5.68
2023-04-14T14:34:33.534Z,7.05
2023-04-14T14:37:11.575Z,7.22
2023-04-14T14:39:50.891Z,4.80
2023-04-14T14:42:26.575Z,5.80
2023-04-14T14:44:55.568Z,8.68
2023-04-14T15:11:30.511Z,4.05
2023-04-14T15:14:15.362Z,5.03
2023-04-14T15:16:59.262Z,9.05
2023-04-14T15:22:15.711Z,6.78
2023-04-14T15:39:09.885Z,6.53
2023-04-14T15:44:49.295Z,4.97
2023-04-14T15:47:27.579Z,5.47
2023-04-14T15:50:09.789Z,3.10
2023-04-14T15:55:19.804Z,5.90
2023-04-14T16:00:45.499Z,4.32
2023-04-14T16:03:20.036Z,5.25
2023-04-14T16:05:48.113Z,4.13
2023-04-14T16:11:01.132Z,6.43
2023-04-14T16:13:30.107Z,5.63
2023-04-14T16:16:01.336Z,4.40
2023-04-14T16:18:47.128Z,5.65
2023-04-14T16:24:10.902Z,5.88
2023-04-14T16:29:59.818Z,6.00
2023-04-14T16:35:51.146Z,5.13
2023-04-14T16:41:17.288Z,6.22
2023-04-14T16:49:31.791Z,4.85
2023-04-14T16:52:06.147Z,5.80
2023-04-14T16:54:54.488Z,6.15
2023-04-14T16:57:30.987Z,3.75
2023-04-14T17:00:01.808Z,4.53
2023-04-14T17:07:54.050Z,6.80
2023-04-14T17:13:15.839Z,5.20
2023-04-14T17:16:08.335Z,6.47
2023-04-14T17:19:05.003Z,4.43
2023-04-14T17:21:36.501Z,3.15
2023-04-14T17:29:45.734Z,5.70
2023-04-14T17:32:18.493Z,3.38
2023-04-14T17:34:55.205Z,5.70
2023-04-14T17:37:25.579Z,5.70
2023-04-14T17:39:54.095Z,4.82
2023-04-14T17:42:33.742Z,2.58
2023-04-14T17:55:58.513Z,1.75
2023-04-14T18:03:53.226Z,2.63
2023-04-14T18:06:20.767Z,2.10
2023-04-14T18:08:55.109Z,5.07
2023-04-14T18:14:18.072Z,2.78
2023-04-14T18:16:48.626Z,3.92
2023-04-14T18:21:59.256Z,3.60
2023-04-14T18:29:43.954Z,3.58
2023-04-14T18:34:57.310Z,3.72
2023-04-14T18:37:29.683Z,4.07
2023-04-14T18:42:38.278Z,2.97
2023-04-14T18:45:13.311Z,3.30
2023-04-14T18:47:50.418Z,4.82
2023-04-14T18:50:29.920Z,5.28
2023-04-14T18:53:02.191Z,5.93
2023-04-14T18:55:44.578Z,4.60
2023-04-14T18:58:13.617Z,4.18
2023-04-14T19:00:44.480Z,5.15
2023-04-14T19:03:12.771Z,3.00
2023-04-14T19:10:51.075Z,6.95
2023-04-14T19:13:29.862Z,3.60
2023-04-14T19:16:15.137Z,3.55
2023-04-14T19:18:47.798Z,8.70
2023-04-14T19:21:17.816Z,6.13
2023-04-14T19:23:47.824Z,7.50
2023-04-14T19:31:52.186Z,4.05
2023-04-14T19:34:20.993Z,6.70
2023-04-14T19:36:50.900Z,7.63
2023-04-14T19:39:25.748Z,7.57
2023-04-14T19:44:40.107Z,6.28
2023-04-14T19:50:01.045Z,15.00
2023-04-14T19:52:29.262Z,12.27
2023-04-14T19:54:58.889Z,10.70
2023-04-14T19:57:26.711Z,7.63
2023-04-14T19:59:58.412Z,10.02
2023-04-14T20:02:26.302Z,10.40
2023-04-14T20:05:00.651Z,11.82
2023-04-14T20:07:29.197Z,6.78
2023-04-14T20:10:02.557Z,8.73
2023-04-14T20:12:31.885Z,11.75
2023-04-14T20:20:24.431Z,11.50
2023-04-14T20:22:54.829Z,8.95
2023-04-14T20:31:04.814Z,11.57
2023-04-14T20:33:53.359Z,11.25
2023-04-14T20:36:27.723Z,9.82
2023-04-14T20:39:00.367Z,10.35
2023-04-14T20:41:33.552Z,12.85
2023-04-14T20:46:47.837Z,11.15
2023-04-14T20:52:44.437Z,11.35
2023-04-14T20:55:17.176Z,10.73
2023-04-14T20:58:03.363Z,10.75
2023-04-14T21:00:34.425Z,12.40
2023-04-14T21:05:38.273Z,10.23
2023-04-14T21:08:10.145Z,11.07
2023-04-14T21:11:15.622Z,9.90
2023-04-14T21:15:40.375Z,10.05
2023-04-14T21:16:43.752Z,9.20
2023-04-14T21:19:19.907Z,9.27
2023-04-14T21:27:40.395Z,8.45
2023-04-14T21:30:21.664Z,11.05
2023-04-14T21:33:13.389Z,9.95
2023-04-14T21:35:52.999Z,13.30
2023-04-14T21:38:20.020Z,10.20
2023-04-14T21:40:49.224Z,9.68
2023-04-14T21:43:16.461Z,10.35
2023-04-14T21:45:47.018Z,10.68
2023-04-14T21:50:53.869Z,10.85
2023-04-14T21:53:37.490Z,9.65
2023-04-14T21:56:31.116Z,10.90
2023-04-14T21:58:58.781Z,9.10
2023-04-14T22:01:44.740Z,8.15
2023-04-14T22:06:52.290Z,6.18
2023-04-14T22:09:30.291Z,12.15
2023-04-14T22:12:08.721Z,8.55
2023-04-14T22:14:39.633Z,8.45
2023-04-14T22:17:16.757Z,8.75
2023-04-14T22:22:21.773Z,9.13
2023-04-14T22:24:52.974Z,10.32
2023-04-14T22:27:24.565Z,5.88
2023-04-14T22:30:00.760Z,11.27
2023-04-14T22:32:31.701Z,10.27
2023-04-14T22:35:01.850Z,11.10
2023-04-14T22:37:33.506Z,8.35
2023-04-14T22:40:08.032Z,9.95
2023-04-14T22:42:50.927Z,7.38
2023-04-14T22:45:19.567Z,11.15
2023-04-14T22:47:57.750Z,8.50
2023-04-14T22:50:24.901Z,9.13
2023-04-14T22:52:52.636Z,9.98
2023-04-14T22:55:22.727Z,9.95
2023-04-14T22:57:58.976Z,9.77
2023-04-14T23:00:39.455Z,7.25
2023-04-14T23:03:12.285Z,14.23
2023-04-14T23:05:41.654Z,13.23
2023-04-14T23:08:15.094Z,12.23
2023-04-14T23:10:44.455Z,10.20
2023-04-14T23:13:14.282Z,12.27
2023-04-14T23:15:42.071Z,9.13
2023-04-14T23:18:12.185Z,8.57
2023-04-14T23:20:44.859Z,10.95
2023-04-14T23:23:12.582Z,10.70
2023-04-14T23:25:42.261Z,9.13
2023-04-14T23:28:27.099Z,12.55
2023-04-14T23:30:55.460Z,11.40
2023-04-14T23:33:25.908Z,10.00
2023-04-14T23:35:53.697Z,11.82
2023-04-14T23:38:21.704Z,11.80
2023-04-14T23:43:36.857Z,10.68
2023-04-14T23:46:08.066Z,11.45
2023-04-14T23:48:38.046Z,9.55
2023-04-14T23:51:21.902Z,10.80
2023-04-14T23:53:52.323Z,10.18
2023-04-14T23:56:24.128Z,8.88
